Time;durP1;ratioP1;P1;durP2;ratioP2;P2;SDS_P1;SDS_P2;PMS_P1;PMS_P2;Temp;Humidity;BMP_temperature;BMP_pressure;BME280_temperature;BME280_humidity;BME280_pressure;Samples;Min_cycle;Max_cycle;Signal;HPM_P1;HPM_P2
2021/07/17 00:01:36;;;;;;;25.08;7.63;;;;;;;;;;5036334;28;36960;-75
2021/07/17 00:04:03;;;;;;;23.63;6.80;;;;;;;;;;5052450;28;38200;-75
2021/07/17 00:06:29;;;;;;;29.17;7.88;;;;;;;;;;5034374;28;38962;-75
2021/07/17 00:08:56;;;;;;;26.45;8.25;;;;;;;;;;5031516;28;39584;-75
2021/07/17 00:11:22;;;;;;;17.92;6.40;;;;;;;;;;5034744;28;38328;-76
2021/07/17 00:13:49;;;;;;;20.33;6.63;;;;;;;;;;5038246;28;37714;-76
2021/07/17 00:16:18;;;;;;;19.38;6.88;;;;;;;;;;5036143;28;38829;-75
2021/07/17 00:18:45;;;;;;;19.50;7.55;;;;;;;;;;5047160;28;38491;-75
2021/07/17 00:21:12;;;;;;;22.73;6.85;;;;;;;;;;5050703;28;39326;-75
2021/07/17 00:23:38;;;;;;;21.08;6.78;;;;;;;;;;5038234;28;36653;-75
2021/07/17 00:26:05;;;;;;;21.92;7.30;;;;;;;;;;5051064;28;39130;-75
2021/07/17 00:28:33;;;;;;;23.35;6.72;;;;;;;;;;5033780;28;40349;-76
2021/07/17 00:31:00;;;;;;;22.48;6.90;;;;;;;;;;5051203;28;38281;-75
2021/07/17 00:33:26;;;;;;;24.27;7.20;;;;;;;;;;5035613;28;36743;-75
2021/07/17 00:35:52;;;;;;;19.40;7.22;;;;;;;;;;5035617;28;38330;-75
2021/07/17 00:38:19;;;;;;;19.65;6.93;;;;;;;;;;5033440;28;38626;-75
2021/07/17 00:40:45;;;;;;;26.08;7.55;;;;;;;;;;5029736;28;40044;-75
2021/07/17 00:43:12;;;;;;;26.02;8.02;;;;;;;;;;5036318;28;35274;-75
2021/07/17 00:45:38;;;;;;;18.58;7.05;;;;;;;;;;5041194;28;39486;-75
2021/07/17 00:48:05;;;;;;;23.27;7.95;;;;;;;;;;5036443;28;38904;-75
2021/07/17 00:50:31;;;;;;;29.02;7.43;;;;;;;;;;5034637;28;38816;-75
2021/07/17 00:52:58;;;;;;;28.75;8.50;;;;;;;;;;5039261;28;35728;-75
2021/07/17 00:55:28;;;;;;;22.38;8.23;;;;;;;;;;5041454;28;38865;-75
2021/07/17 00:57:55;;;;;;;26.77;8.02;;;;;;;;;;5035351;28;38907;-75
2021/07/17 01:00:22;;;;;;;24.63;7.72;;;;;;;;;;5036584;28;38288;-75
2021/07/17 01:02:52;;;;;;;23.25;7.97;;;;;;;;;;5040289;28;37015;-75
2021/07/17 01:05:18;;;;;;;21.00;7.13;;;;;;;;;;5037291;28;40424;-75
2021/07/17 01:07:48;;;;;;;26.65;8.05;;;;;;;;;;5043063;28;39989;-75
2021/07/17 01:10:15;;;;;;;23.13;8.30;;;;;;;;;;5037492;28;39318;-75
2021/07/17 01:12:43;;;;;;;19.50;6.80;;;;;;;;;;5040942;28;35996;-75
2021/07/17 01:15:09;;;;;;;22.20;7.28;;;;;;;;;;5040991;28;38837;-74
2021/07/17 01:17:36;;;;;;;22.38;7.45;;;;;;;;;;5035861;28;42191;-75
2021/07/17 01:20:05;;;;;;;21.15;7.32;;;;;;;;;;5032677;28;38343;-75
2021/07/17 01:22:32;;;;;;;16.05;6.95;;;;;;;;;;5023064;28;47424;-75
2021/07/17 01:24:58;;;;;;;18.17;7.30;;;;;;;;;;5037420;28;39012;-75
2021/07/17 01:27:25;;;;;;;22.58;7.35;;;;;;;;;;5034716;28;39954;-75
2021/07/17 01:29:51;;;;;;;24.20;7.60;;;;;;;;;;5033677;28;37933;-75
2021/07/17 01:32:18;;;;;;;26.35;7.90;;;;;;;;;;5048852;28;35974;-75
2021/07/17 01:34:45;;;;;;;20.38;7.20;;;;;;;;;;5034570;28;38811;-75
2021/07/17 01:37:11;;;;;;;20.45;7.43;;;;;;;;;;5032917;28;39801;-75
2021/07/17 01:39:38;;;;;;;19.65;7.20;;;;;;;;;;5049291;28;38541;-74
2021/07/17 01:42:04;;;;;;;21.40;7.57;;;;;;;;;;5032321;28;35648;-74
2021/07/17 01:44:39;;;;;;;15.95;7.80;;;;;;;;;;5029427;28;39223;-75
2021/07/17 01:47:06;;;;;;;21.73;7.65;;;;;;;;;;5036691;28;39307;-75
2021/07/17 01:49:32;;;;;;;16.10;6.75;;;;;;;;;;5048327;28;37140;-75
2021/07/17 01:51:58;;;;;;;21.67;8.90;;;;;;;;;;5033240;28;37605;-75
2021/07/17 01:54:25;;;;;;;20.52;7.93;;;;;;;;;;5037671;28;40696;-75
2021/07/17 01:56:51;;;;;;;20.02;8.75;;;;;;;;;;5039218;28;39936;-75
2021/07/17 01:59:17;;;;;;;20.50;7.72;;;;;;;;;;5034235;28;39491;-75
2021/07/17 02:01:44;;;;;;;20.52;7.55;;;;;;;;;;5037550;28;37632;-75
2021/07/17 02:04:10;;;;;;;21.75;7.95;;;;;;;;;;5038669;28;37355;-75
2021/07/17 02:06:36;;;;;;;16.75;7.32;;;;;;;;;;5037389;28;40084;-75
2021/07/17 02:09:03;;;;;;;20.95;7.68;;;;;;;;;;5031939;28;38625;-74
2021/07/17 02:11:29;;;;;;;19.10;8.15;;;;;;;;;;5039003;28;37714;-75
2021/07/17 02:13:56;;;;;;;25.60;9.48;;;;;;;;;;5038986;28;40295;-75
2021/07/17 02:16:23;;;;;;;22.90;8.57;;;;;;;;;;5034175;28;40410;-74
2021/07/17 02:18:49;;;;;;;16.20;7.68;;;;;;;;;;5032374;28;39675;-75
2021/07/17 02:21:16;;;;;;;19.38;8.20;;;;;;;;;;5033248;28;38368;-75
2021/07/17 02:23:43;;;;;;;18.33;7.95;;;;;;;;;;5038027;28;38232;-75
2021/07/17 02:26:10;;;;;;;25.98;9.27;;;;;;;;;;5036489;28;40021;-75
2021/07/17 02:28:37;;;;;;;22.77;8.02;;;;;;;;;;5037706;28;37091;-75
2021/07/17 02:31:04;;;;;;;18.13;7.70;;;;;;;;;;5050166;28;37205;-74
2021/07/17 02:33:31;;;;;;;22.10;8.07;;;;;;;;;;5034439;28;38919;-74
2021/07/17 02:35:57;;;;;;;20.02;8.55;;;;;;;;;;5032132;28;39814;-75
2021/07/17 02:38:24;;;;;;;25.08;8.50;;;;;;;;;;5028069;28;38008;-75
2021/07/17 02:40:50;;;;;;;23.80;9.52;;;;;;;;;;5032957;28;37109;-75
2021/07/17 02:43:16;;;;;;;18.02;8.02;;;;;;;;;;5038316;28;37453;-75
2021/07/17 02:45:43;;;;;;;18.83;8.27;;;;;;;;;;5036187;28;38720;-75
2021/07/17 02:48:09;;;;;;;22.48;8.23;;;;;;;;;;5037863;28;38933;-75
2021/07/17 02:50:35;;;;;;;25.17;7.78;;;;;;;;;;5040844;28;36277;-75
2021/07/17 02:53:02;;;;;;;22.77;8.43;;;;;;;;;;5038435;28;39094;-73
2021/07/17 02:55:28;;;;;;;19.20;8.43;;;;;;;;;;5037836;28;38844;-75
2021/07/17 02:57:55;;;;;;;19.17;8.13;;;;;;;;;;5035407;28;40059;-75
2021/07/17 03:00:21;;;;;;;31.65;10.15;;;;;;;;;;5035232;28;37619;-75
2021/07/17 03:02:48;;;;;;;22.92;8.98;;;;;;;;;;5033722;28;39021;-76
2021/07/17 03:05:14;;;;;;;18.85;8.55;;;;;;;;;;5030837;28;38890;-75
2021/07/17 03:07:40;;;;;;;24.85;9.52;;;;;;;;;;5029800;28;37984;-75
2021/07/17 03:10:07;;;;;;;21.90;9.05;;;;;;;;;;5031236;28;36264;-74
2021/07/17 03:12:33;;;;;;;28.00;9.75;;;;;;;;;;5032029;28;39042;-75
2021/07/17 03:15:00;;;;;;;25.25;9.65;;;;;;;;;;5037508;28;38373;-75
2021/07/17 03:17:26;;;;;;;22.83;9.18;;;;;;;;;;5033941;28;38383;-75
2021/07/17 03:19:53;;;;;;;25.25;9.60;;;;;;;;;;5040061;28;37824;-75
2021/07/17 03:22:22;;;;;;;27.85;10.35;;;;;;;;;;5030200;28;39780;-75
2021/07/17 03:24:48;;;;;;;25.92;9.43;;;;;;;;;;5033365;28;39920;-75
2021/07/17 03:27:14;;;;;;;25.27;10.48;;;;;;;;;;5034014;28;39370;-75
2021/07/17 03:29:41;;;;;;;29.17;11.90;;;;;;;;;;5036911;28;36726;-75
2021/07/17 03:32:07;;;;;;;24.92;10.20;;;;;;;;;;5031874;28;39736;-75
2021/07/17 03:34:34;;;;;;;20.05;9.07;;;;;;;;;;5044796;28;39007;-75
2021/07/17 03:37:00;;;;;;;22.52;8.73;;;;;;;;;;5028348;28;38822;-75
2021/07/17 03:39:26;;;;;;;23.92;9.82;;;;;;;;;;5044964;28;37240;-75
2021/07/17 03:41:53;;;;;;;26.52;10.63;;;;;;;;;;5031036;28;37773;-75
2021/07/17 03:44:24;;;;;;;25.85;10.32;;;;;;;;;;5030361;28;38136;-75
2021/07/17 03:46:51;;;;;;;26.98;10.65;;;;;;;;;;5030355;28;38819;-75
2021/07/17 03:49:18;;;;;;;37.50;11.32;;;;;;;;;;5030393;28;38106;-75
2021/07/17 03:51:44;;;;;;;30.63;10.10;;;;;;;;;;5029626;28;38618;-75
2021/07/17 03:54:10;;;;;;;27.90;9.63;;;;;;;;;;5029744;28;37014;-75
2021/07/17 03:56:37;;;;;;;31.20;10.15;;;;;;;;;;5033407;28;39831;-75
2021/07/17 03:59:03;;;;;;;23.75;9.18;;;;;;;;;;5036695;28;37942;-74
2021/07/17 04:01:29;;;;;;;28.17;10.32;;;;;;;;;;5038228;28;38922;-75
2021/07/17 04:03:56;;;;;;;26.05;10.13;;;;;;;;;;5044205;28;38319;-75
2021/07/17 04:06:22;;;;;;;28.90;9.55;;;;;;;;;;5028315;28;39222;-76
2021/07/17 04:08:49;;;;;;;35.00;10.40;;;;;;;;;;5030752;28;36898;-76
2021/07/17 04:11:15;;;;;;;35.60;10.63;;;;;;;;;;5022921;28;39532;-75
2021/07/17 04:13:41;;;;;;;25.98;10.55;;;;;;;;;;5031359;28;37284;-75
2021/07/17 04:16:08;;;;;;;31.05;9.73;;;;;;;;;;5032292;28;38648;-75
2021/07/17 04:18:34;;;;;;;26.67;10.18;;;;;;;;;;5031798;28;38540;-75
2021/07/17 04:21:01;;;;;;;28.88;9.15;;;;;;;;;;5047501;28;39873;-75
2021/07/17 04:23:27;;;;;;;24.88;9.52;;;;;;;;;;5030544;28;39904;-74
2021/07/17 04:25:54;;;;;;;27.27;9.18;;;;;;;;;;5034952;28;38898;-75
2021/07/17 04:28:21;;;;;;;29.20;9.93;;;;;;;;;;5034053;28;36764;-75
2021/07/17 04:30:47;;;;;;;29.08;8.90;;;;;;;;;;5036961;28;39200;-75
2021/07/17 04:33:14;;;;;;;29.17;8.70;;;;;;;;;;5029500;28;38882;-76
2021/07/17 04:35:41;;;;;;;25.42;8.65;;;;;;;;;;5036238;28;38459;-76
2021/07/17 04:38:08;;;;;;;23.40;8.52;;;;;;;;;;5048745;28;36404;-75
2021/07/17 04:40:34;;;;;;;23.35;8.07;;;;;;;;;;5039241;28;40328;-76
2021/07/17 04:43:01;;;;;;;24.10;9.23;;;;;;;;;;5032570;28;38785;-75
2021/07/17 04:45:27;;;;;;;22.27;8.40;;;;;;;;;;5050842;28;47151;-76
2021/07/17 04:47:54;;;;;;;31.17;8.50;;;;;;;;;;5037142;28;35121;-76
2021/07/17 04:50:20;;;;;;;21.52;8.52;;;;;;;;;;5037673;28;37690;-75
2021/07/17 04:52:46;;;;;;;27.92;9.10;;;;;;;;;;5031525;28;39588;-75
2021/07/17 04:55:13;;;;;;;24.40;9.32;;;;;;;;;;5050650;28;39865;-75
2021/07/17 04:57:40;;;;;;;25.63;8.68;;;;;;;;;;5046977;28;37743;-75
2021/07/17 05:00:06;;;;;;;37.38;9.35;;;;;;;;;;5032236;28;37603;-75
2021/07/17 05:02:33;;;;;;;26.83;8.20;;;;;;;;;;5034315;28;46994;-75
2021/07/17 05:04:59;;;;;;;27.02;9.48;;;;;;;;;;5031504;28;38901;-75
2021/07/17 05:07:26;;;;;;;34.50;8.52;;;;;;;;;;5033064;28;36534;-76
2021/07/17 05:09:52;;;;;;;24.27;8.32;;;;;;;;;;5036392;28;39450;-75
2021/07/17 05:12:18;;;;;;;23.83;9.02;;;;;;;;;;5050354;28;39535;-75
2021/07/17 05:14:45;;;;;;;31.63;8.52;;;;;;;;;;5036539;28;38695;-75
2021/07/17 05:17:11;;;;;;;26.92;9.50;;;;;;;;;;5042280;28;40269;-75
2021/07/17 05:19:38;;;;;;;25.75;8.38;;;;;;;;;;5049590;28;39009;-74
2021/07/17 05:22:04;;;;;;;20.65;7.70;;;;;;;;;;5047518;28;39972;-76
2021/07/17 05:24:30;;;;;;;21.50;8.60;;;;;;;;;;5040263;28;39661;-76
2021/07/17 05:26:57;;;;;;;21.35;6.80;;;;;;;;;;5040685;28;37620;-75
2021/07/17 05:29:23;;;;;;;35.00;8.63;;;;;;;;;;5036938;28;37117;-75
2021/07/17 05:31:49;;;;;;;24.00;7.72;;;;;;;;;;5052025;28;38627;-75
2021/07/17 05:34:16;;;;;;;24.67;6.38;;;;;;;;;;5049630;28;38803;-75
2021/07/17 05:36:42;;;;;;;21.83;6.88;;;;;;;;;;5038602;28;37300;-75
2021/07/17 05:39:08;;;;;;;23.63;7.30;;;;;;;;;;5030852;28;39628;-75
2021/07/17 05:41:35;;;;;;;23.65;6.78;;;;;;;;;;5044895;28;39100;-75
2021/07/17 05:44:01;;;;;;;26.90;6.72;;;;;;;;;;5030357;28;38921;-75
2021/07/17 05:46:27;;;;;;;17.23;5.82;;;;;;;;;;5044496;28;47126;-75
2021/07/17 05:48:54;;;;;;;17.45;5.55;;;;;;;;;;5030253;28;40094;-75
2021/07/17 05:51:20;;;;;;;17.38;5.70;;;;;;;;;;5029993;28;38948;-76
2021/07/17 05:53:47;;;;;;;17.33;5.72;;;;;;;;;;5049176;28;38596;-75
2021/07/17 05:56:13;;;;;;;22.40;5.82;;;;;;;;;;5042283;28;38253;-75
2021/07/17 05:58:39;;;;;;;19.90;5.47;;;;;;;;;;5030527;28;41802;-75
2021/07/17 06:01:06;;;;;;;17.95;5.03;;;;;;;;;;5027978;28;39194;-76
2021/07/17 06:03:32;;;;;;;15.70;4.88;;;;;;;;;;5047623;28;38988;-75
2021/07/17 06:05:59;;;;;;;16.08;5.10;;;;;;;;;;5030948;28;35534;-75
2021/07/17 06:08:25;;;;;;;17.80;6.07;;;;;;;;;;5030569;28;38744;-76
2021/07/17 06:10:51;;;;;;;15.00;4.60;;;;;;;;;;5031131;28;39896;-75
2021/07/17 06:13:18;;;;;;;19.95;5.18;;;;;;;;;;5034955;28;39598;-75
2021/07/17 06:15:44;;;;;;;15.98;4.65;;;;;;;;;;5033858;28;39044;-75
2021/07/17 06:18:11;;;;;;;13.20;4.45;;;;;;;;;;5049799;28;39090;-75
2021/07/17 06:20:37;;;;;;;16.67;4.93;;;;;;;;;;5031104;28;38721;-75
2021/07/17 06:23:04;;;;;;;18.27;4.95;;;;;;;;;;5028211;28;38137;-74
2021/07/17 06:25:33;;;;;;;19.38;4.47;;;;;;;;;;5029338;28;33622;-75
2021/07/17 06:27:59;;;;;;;18.73;4.80;;;;;;;;;;5037122;28;39757;-75
2021/07/17 06:30:26;;;;;;;14.65;4.65;;;;;;;;;;5028627;28;40185;-75
2021/07/17 06:32:52;;;;;;;13.70;4.35;;;;;;;;;;5029451;28;38777;-75
2021/07/17 06:35:19;;;;;;;16.45;4.22;;;;;;;;;;5029257;28;36897;-74
2021/07/17 06:37:45;;;;;;;16.67;4.53;;;;;;;;;;5036557;28;39500;-75
2021/07/17 06:40:15;;;;;;;16.65;4.50;;;;;;;;;;5027024;28;38971;-74
2021/07/17 06:42:51;;;;;;;16.42;4.68;;;;;;;;;;5034308;28;40231;-75
2021/07/17 06:45:18;;;;;;;18.95;4.28;;;;;;;;;;5037287;28;36696;-77
2021/07/17 06:47:45;;;;;;;17.42;4.45;;;;;;;;;;5055863;28;38308;-78
2021/07/17 06:50:12;;;;;;;10.45;3.47;;;;;;;;;;5045508;28;39485;-75
2021/07/17 06:52:39;;;;;;;13.93;3.38;;;;;;;;;;5036617;28;39625;-74
2021/07/17 06:55:07;;;;;;;10.40;3.35;;;;;;;;;;5034825;28;37193;-73
2021/07/17 06:57:35;;;;;;;9.38;3.78;;;;;;;;;;5036736;28;38725;-73
2021/07/17 07:00:01;;;;;;;13.98;3.78;;;;;;;;;;5034487;28;39283;-73
2021/07/17 07:02:28;;;;;;;15.40;3.75;;;;;;;;;;5030600;28;39768;-74
2021/07/17 07:04:54;;;;;;;10.30;3.70;;;;;;;;;;5033766;28;37623;-75
2021/07/17 07:07:21;;;;;;;10.07;3.33;;;;;;;;;;5033984;28;39287;-73
2021/07/17 07:09:47;;;;;;;12.30;3.70;;;;;;;;;;5037949;28;39039;-72
2021/07/17 07:12:13;;;;;;;10.18;3.05;;;;;;;;;;5039146;28;39342;-74
2021/07/17 07:14:40;;;;;;;10.85;3.28;;;;;;;;;;5040115;28;36434;-73
2021/07/17 07:17:06;;;;;;;9.00;2.90;;;;;;;;;;5033192;28;39281;-73
2021/07/17 07:19:32;;;;;;;10.90;2.97;;;;;;;;;;5035170;28;39208;-73
2021/07/17 07:21:59;;;;;;;18.08;4.35;;;;;;;;;;5037920;28;39044;-73
2021/07/17 07:24:25;;;;;;;8.07;2.80;;;;;;;;;;5041554;28;38501;-75
2021/07/17 07:26:53;;;;;;;8.07;2.90;;;;;;;;;;5048670;28;37093;-74
2021/07/17 07:29:19;;;;;;;8.13;2.78;;;;;;;;;;5036493;28;39445;-74
2021/07/17 07:31:46;;;;;;;7.57;2.53;;;;;;;;;;5036508;28;39202;-74
2021/07/17 07:34:12;;;;;;;9.75;2.88;;;;;;;;;;5037309;28;37031;-75
2021/07/17 07:36:39;;;;;;;6.13;2.22;;;;;;;;;;5038196;28;40427;-74
2021/07/17 07:39:05;;;;;;;8.45;2.30;;;;;;;;;;5038728;28;38532;-74
2021/07/17 07:41:32;;;;;;;8.18;2.50;;;;;;;;;;5039033;28;39428;-74
2021/07/17 07:43:58;;;;;;;8.60;2.50;;;;;;;;;;5051345;28;36953;-78
2021/07/17 07:46:24;;;;;;;7.55;2.55;;;;;;;;;;5040699;28;39867;-77
2021/07/17 07:48:51;;;;;;;5.53;2.38;;;;;;;;;;5045331;28;38952;-76
2021/07/17 07:51:17;;;;;;;6.70;2.20;;;;;;;;;;5043711;28;36521;-75
2021/07/17 07:53:43;;;;;;;8.48;2.00;;;;;;;;;;5040997;28;36694;-75
2021/07/17 07:56:10;;;;;;;8.88;2.90;;;;;;;;;;5029589;28;39485;-76
2021/07/17 07:58:36;;;;;;;8.90;2.17;;;;;;;;;;5038539;28;40805;-76
2021/07/17 08:01:03;;;;;;;6.25;2.00;;;;;;;;;;5035016;28;38720;-76
2021/07/17 08:03:29;;;;;;;6.15;2.17;;;;;;;;;;5040836;28;36377;-78
2021/07/17 08:05:56;;;;;;;3.83;1.88;;;;;;;;;;5046235;28;42869;-78
2021/07/17 08:08:22;;;;;;;7.28;2.10;;;;;;;;;;5053314;28;42270;-77
2021/07/17 08:10:48;;;;;;;6.18;2.28;;;;;;;;;;5037391;28;39172;-77
2021/07/17 08:13:15;;;;;;;6.38;1.92;;;;;;;;;;5039249;28;36962;-78
2021/07/17 08:15:41;;;;;;;5.53;2.20;;;;;;;;;;5035919;28;38890;-77
2021/07/17 08:18:08;;;;;;;4.93;1.85;;;;;;;;;;5039122;28;38699;-77
2021/07/17 08:20:35;;;;;;;5.80;1.83;;;;;;;;;;5034385;28;37739;-77
2021/07/17 08:23:01;;;;;;;4.90;1.88;;;;;;;;;;5040539;28;36107;-77
2021/07/17 08:25:27;;;;;;;6.13;1.90;;;;;;;;;;5042232;28;47486;-77
2021/07/17 08:27:54;;;;;;;5.50;1.48;;;;;;;;;;5055020;28;39260;-77
2021/07/17 08:30:20;;;;;;;5.80;1.65;;;;;;;;;;5042358;28;36919;-78
2021/07/17 08:32:46;;;;;;;6.13;1.88;;;;;;;;;;5038864;28;37825;-78
2021/07/17 08:35:13;;;;;;;3.58;1.55;;;;;;;;;;5048212;28;40906;-79
2021/07/17 08:40:15;;;;;;;5.45;1.92;;;;;;;;;;5340698;22;20048;-80
2021/07/17 08:42:44;;;;;;;3.03;1.52;;;;;;;;;;5073124;28;36236;-78
2021/07/17 08:45:11;;;;;;;5.00;1.60;;;;;;;;;;5067970;28;39727;-79
2021/07/17 08:47:41;;;;;;;4.50;1.80;;;;;;;;;;5066382;28;37484;-81
2021/07/17 08:50:08;;;;;;;4.53;1.30;;;;;;;;;;5063726;28;36371;-79
2021/07/17 08:52:35;;;;;;;3.50;1.48;;;;;;;;;;5065339;28;37360;-77
2021/07/17 08:55:05;;;;;;;2.75;1.20;;;;;;;;;;5063760;28;37950;-79
2021/07/17 08:57:32;;;;;;;4.75;1.50;;;;;;;;;;5062203;28;48791;-79
2021/07/17 09:00:00;;;;;;;3.80;1.17;;;;;;;;;;5067079;28;37468;-78
2021/07/17 09:02:26;;;;;;;5.93;1.60;;;;;;;;;;5070753;28;37320;-80
2021/07/17 09:04:53;;;;;;;2.72;1.27;;;;;;;;;;5070023;28;37437;-80
2021/07/17 09:07:20;;;;;;;4.35;1.63;;;;;;;;;;5061442;28;39340;-79
2021/07/17 09:09:46;;;;;;;4.78;1.27;;;;;;;;;;5061256;28;37086;-79
2021/07/17 09:12:22;;;;;;;4.95;1.10;;;;;;;;;;5079310;28;37284;-80
2021/07/17 09:14:48;;;;;;;4.47;1.17;;;;;;;;;;5070134;28;40130;-79
2021/07/17 09:17:25;;;;;;;3.95;1.30;;;;;;;;;;5069289;28;41377;-79
2021/07/17 09:19:55;;;;;;;5.45;1.75;;;;;;;;;;5080916;28;38550;-79
2021/07/17 09:22:51;;;;;;;3.10;1.30;;;;;;;;;;5061921;28;36984;-78
2021/07/17 09:25:18;;;;;;;6.25;1.60;;;;;;;;;;5048330;28;38721;-78
2021/07/17 09:27:45;;;;;;;2.42;1.65;;;;;;;;;;5057406;28;39878;-78
2021/07/17 09:30:27;;;;;;;4.07;1.73;;;;;;;;;;5052147;27;39543;-78
2021/07/17 09:32:53;;;;;;;;;;;;;;;;;;5059204;28;39184;-78
2021/07/17 09:35:22;;;;;;;1.95;1.00;;;;;;;;;;5060675;28;40257;-78
2021/07/17 09:37:54;;;;;;;3.30;1.20;;;;;;;;;;5064270;28;38939;-78
2021/07/17 09:40:20;;;;;;;3.85;1.00;;;;;;;;;;5059313;28;40318;-79
2021/07/17 09:42:46;;;;;;;3.28;1.15;;;;;;;;;;5061135;28;36889;-80
2021/07/17 09:45:13;;;;;;;4.18;1.60;;;;;;;;;;5058121;28;38956;-78
2021/07/17 09:47:39;;;;;;;3.90;1.35;;;;;;;;;;5060499;28;38879;-79
2021/07/17 09:50:13;;;;;;;3.30;1.00;;;;;;;;;;5058105;28;38129;-78
2021/07/17 09:52:43;;;;;;;2.65;0.93;;;;;;;;;;5058354;28;35721;-78
2021/07/17 09:55:12;;;;;;;3.72;1.13;;;;;;;;;;5058491;28;38501;-78
2021/07/17 09:57:39;;;;;;;4.10;0.90;;;;;;;;;;5058741;28;40539;-77
2021/07/17 10:00:19;;;;;;;1.13;0.80;;;;;;;;;;5056459;28;39231;-78
2021/07/17 10:02:46;;;;;;;2.85;1.08;;;;;;;;;;5057128;28;47112;-78
2021/07/17 10:05:15;;;;;;;1.48;0.90;;;;;;;;;;5058145;28;37486;-77
2021/07/17 10:07:43;;;;;;;4.10;1.05;;;;;;;;;;5061080;28;38874;-78
2021/07/17 10:10:10;;;;;;;4.00;1.20;;;;;;;;;;5064070;28;39434;-78
2021/07/17 10:12:37;;;;;;;2.55;1.00;;;;;;;;;;5064450;28;35915;-78
2021/07/17 10:15:05;;;;;;;5.22;1.20;;;;;;;;;;5065391;28;37482;-77
2021/07/17 10:17:35;;;;;;;3.42;1.52;;;;;;;;;;5061620;28;48420;-77
2021/07/17 10:20:02;;;;;;;3.75;1.40;;;;;;;;;;5061471;28;37734;-78
2021/07/17 10:22:28;;;;;;;4.05;1.30;;;;;;;;;;5062643;28;35631;-79
2021/07/17 10:24:55;;;;;;;3.03;1.13;;;;;;;;;;5063339;28;41166;-77
2021/07/17 10:27:21;;;;;;;6.10;1.65;;;;;;;;;;5064446;28;39216;-77
2021/07/17 10:29:49;;;;;;;4.10;1.50;;;;;;;;;;5066878;28;38238;-79
2021/07/17 10:32:18;;;;;;;1.83;1.10;;;;;;;;;;5075209;28;35183;-78
2021/07/17 10:34:45;;;;;;;2.65;0.95;;;;;;;;;;5071785;28;39695;-77
2021/07/17 10:37:17;;;;;;;2.67;1.10;;;;;;;;;;5065438;28;38971;-79
2021/07/17 10:39:49;;;;;;;2.30;1.10;;;;;;;;;;5076206;28;38815;-78
2021/07/17 10:42:18;;;;;;;6.25;1.50;;;;;;;;;;5075013;28;36300;-78
2021/07/17 10:44:46;;;;;;;2.75;1.25;;;;;;;;;;5070058;28;39277;-78
2021/07/17 10:47:12;;;;;;;4.40;1.40;;;;;;;;;;5277727;22;39839;-77
2021/07/17 10:49:42;;;;;;;3.65;1.40;;;;;;;;;;5075027;28;37189;-78
2021/07/17 10:52:08;;;;;;;2.92;1.17;;;;;;;;;;5067388;27;37466;-79
2021/07/17 10:54:36;;;;;;;4.47;1.58;;;;;;;;;;5062290;28;37624;-79
2021/07/17 10:57:03;;;;;;;3.22;1.27;;;;;;;;;;5064490;28;39341;-79
2021/07/17 10:59:29;;;;;;;4.25;1.50;;;;;;;;;;5067538;28;39423;-78
2021/07/17 11:02:02;;;;;;;4.15;1.55;;;;;;;;;;5065608;28;37029;-78
2021/07/17 11:04:35;;;;;;;3.92;1.30;;;;;;;;;;5062531;28;48473;-78
2021/07/17 11:07:32;;;;;;;3.35;1.23;;;;;;;;;;5057578;28;39450;-77
2021/07/17 11:10:09;;;;;;;2.53;1.13;;;;;;;;;;5060446;28;48628;-77
2021/07/17 11:12:44;;;;;;;7.13;1.25;;;;;;;;;;5068413;28;47693;-77
2021/07/17 11:15:11;;;;;;;3.15;1.05;;;;;;;;;;5059127;28;38586;-77
2021/07/17 11:17:43;;;;;;;2.15;1.15;;;;;;;;;;5058988;28;39122;-77
2021/07/17 11:20:38;;;;;;;2.53;0.93;;;;;;;;;;5055651;28;40093;-78
2021/07/17 11:23:08;;;;;;;2.80;0.75;;;;;;;;;;5059454;28;36920;-78
2021/07/17 11:25:35;;;;;;;2.55;0.68;;;;;;;;;;5051548;28;37877;-78
2021/07/17 11:28:02;;;;;;;4.18;1.20;;;;;;;;;;5060399;28;39339;-78
2021/07/17 11:30:33;;;;;;;3.50;1.00;;;;;;;;;;5057910;28;20049;-77
2021/07/17 11:33:06;;;;;;;2.20;0.77;;;;;;;;;;5060509;28;36990;-77
2021/07/17 11:35:36;;;;;;;3.50;1.08;;;;;;;;;;5053366;28;47032;-78
2021/07/17 11:38:04;;;;;;;2.50;1.08;;;;;;;;;;5056935;28;37307;-77
2021/07/17 11:40:31;;;;;;;2.03;1.13;;;;;;;;;;5061442;28;37772;-77
2021/07/17 11:43:01;;;;;;;2.88;1.00;;;;;;;;;;5061832;28;35550;-77
2021/07/17 11:45:28;;;;;;;6.57;1.40;;;;;;;;;;5056289;27;48923;-77
2021/07/17 11:47:54;;;;;;;2.83;1.30;;;;;;;;;;5060008;28;40077;-77
2021/07/17 11:50:24;;;;;;;4.03;1.00;;;;;;;;;;5056126;28;37531;-77
2021/07/17 11:52:50;;;;;;;2.53;0.90;;;;;;;;;;5058785;28;36946;-77
2021/07/17 11:55:19;;;;;;;1.95;0.70;;;;;;;;;;5062071;28;38562;-76
2021/07/17 11:57:46;;;;;;;1.30;0.60;;;;;;;;;;5061823;28;39553;-77
2021/07/17 12:00:17;;;;;;;2.00;0.82;;;;;;;;;;5055596;28;37975;-76
2021/07/17 12:02:45;;;;;;;1.85;0.90;;;;;;;;;;5060712;28;36768;-76
2021/07/17 12:05:14;;;;;;;1.27;0.73;;;;;;;;;;5052764;28;38363;-76
2021/07/17 12:07:41;;;;;;;2.22;0.73;;;;;;;;;;5059653;28;38929;-76
2021/07/17 12:10:07;;;;;;;2.38;0.95;;;;;;;;;;5057748;28;38879;-77
2021/07/17 12:12:39;;;;;;;1.70;0.70;;;;;;;;;;5059127;28;36687;-77
2021/07/17 12:15:10;;;;;;;1.63;0.60;;;;;;;;;;5060043;28;39768;-77
2021/07/17 12:17:37;;;;;;;3.50;1.10;;;;;;;;;;5059530;28;39289;-75
2021/07/17 12:20:08;;;;;;;3.50;1.25;;;;;;;;;;5062720;28;39323;-76
2021/07/17 12:22:35;;;;;;;3.43;1.33;;;;;;;;;;5056988;28;47083;-76
2021/07/17 12:25:03;;;;;;;4.90;1.50;;;;;;;;;;5059812;28;38545;-76
2021/07/17 12:27:30;;;;;;;4.18;1.63;;;;;;;;;;5065881;28;47533;-77
2021/07/17 12:29:56;;;;;;;3.67;1.42;;;;;;;;;;5061065;28;39353;-78
2021/07/17 12:32:23;;;;;;;4.00;1.77;;;;;;;;;;5063536;28;35856;-77
2021/07/17 12:34:56;;;;;;;5.80;1.73;;;;;;;;;;5063988;28;39238;-77
2021/07/17 12:37:29;;;;;;;6.25;1.60;;;;;;;;;;5065850;28;37059;-77
2021/07/17 12:40:09;;;;;;;5.03;1.83;;;;;;;;;;5056991;28;39321;-76
2021/07/17 12:42:43;;;;;;;5.63;1.60;;;;;;;;;;5063405;28;48846;-76
2021/07/17 12:45:09;;;;;;;4.30;1.67;;;;;;;;;;5060366;28;39879;-77
2021/07/17 12:47:36;;;;;;;6.35;1.60;;;;;;;;;;5061993;28;38633;-81
2021/07/17 12:50:03;;;;;;;6.45;1.92;;;;;;;;;;5078227;28;38020;-80
2021/07/17 12:52:29;;;;;;;6.20;1.83;;;;;;;;;;5071210;28;48677;-78
2021/07/17 12:55:08;;;;;;;5.80;1.83;;;;;;;;;;5083553;28;37846;-77
2021/07/17 12:57:35;;;;;;;5.45;1.88;;;;;;;;;;5057095;28;47809;-77
2021/07/17 13:00:04;;;;;;;7.75;1.80;;;;;;;;;;5069957;28;39037;-78
2021/07/17 13:02:31;;;;;;;3.67;1.45;;;;;;;;;;5072646;28;48145;-79
2021/07/17 13:04:57;;;;;;;6.63;1.75;;;;;;;;;;5066553;28;37872;-78
2021/07/17 13:07:30;;;;;;;4.15;1.45;;;;;;;;;;5070394;28;39436;-79
2021/07/17 13:09:57;;;;;;;4.05;1.60;;;;;;;;;;5065499;28;38657;-77
2021/07/17 13:12:32;;;;;;;7.78;1.95;;;;;;;;;;5057583;28;36931;-78
2021/07/17 13:15:02;;;;;;;2.65;1.60;;;;;;;;;;5068889;28;38561;-78
2021/07/17 13:17:33;;;;;;;5.40;1.80;;;;;;;;;;5066754;28;47091;-80
2021/07/17 13:20:05;;;;;;;3.97;1.48;;;;;;;;;;5067399;28;39528;-77
2021/07/17 13:22:37;;;;;;;4.05;1.58;;;;;;;;;;5068544;28;47237;-78
2021/07/17 13:25:26;;;;;;;5.88;1.58;;;;;;;;;;5079747;28;38937;-79
2021/07/17 13:28:10;;;;;;;3.42;1.40;;;;;;;;;;5114379;22;49434;-76
2021/07/17 13:30:38;;;;;;;5.07;1.45;;;;;;;;;;5074661;28;39817;-79
2021/07/17 13:33:09;;;;;;;5.93;1.90;;;;;;;;;;5084623;28;36750;-77
2021/07/17 13:38:13;;;;;;;5.70;2.17;;;;;;;;;;5734980;22;20057;-78
2021/07/17 13:40:48;;;;;;;4.78;1.70;;;;;;;;;;5070322;28;39386;-79
2021/07/17 13:43:16;;;;;;;7.22;2.03;;;;;;;;;;5060543;28;36664;-78
2021/07/17 13:45:43;;;;;;;3.22;1.63;;;;;;;;;;5076743;28;37882;-80
2021/07/17 13:51:18;;;;;;;5.28;1.60;;;;;;;;;;5111249;22;20061;-79
2021/07/17 13:53:45;;;;;;;4.68;1.35;;;;;;;;;;5065108;28;36243;-78
2021/07/17 13:56:12;;;;;;;4.28;1.80;;;;;;;;;;5044902;28;38022;-78
2021/07/17 13:58:39;;;;;;;4.05;1.33;;;;;;;;;;5036984;28;38538;-77
2021/07/17 14:01:29;;;;;;;4.60;1.60;;;;;;;;;;5057168;28;38534;-78
2021/07/17 14:04:12;;;;;;;5.68;1.90;;;;;;;;;;5441893;22;20045;-79
2021/07/17 14:06:38;;;;;;;7.05;1.63;;;;;;;;;;5076450;28;37677;-79
2021/07/17 14:09:04;;;;;;;5.38;1.70;;;;;;;;;;5073846;28;38317;-79
2021/07/17 14:14:12;;;;;;;3.10;1.13;;;;;;;;;;5524999;22;20037;-80
2021/07/17 14:16:39;;;;;;;5.25;1.02;;;;;;;;;;5083568;28;37735;-79
2021/07/17 14:19:05;;;;;;;3.90;1.40;;;;;;;;;;5262907;22;38979;-80
2021/07/17 14:26:44;;;;;;;2.90;1.50;;;;;;;;;;5309787;22;20029;-78
2021/07/17 14:29:13;;;;;;;5.78;1.23;;;;;;;;;;5449872;22;40313;-79
2021/07/17 14:31:39;;;;;;;3.53;1.10;;;;;;;;;;5078658;28;38838;-78
2021/07/17 14:34:06;;;;;;;11.60;5.88;;;;;;;;;;5067491;28;34701;-77
2021/07/17 14:36:33;;;;;;;6.63;4.03;;;;;;;;;;5066678;28;38093;-78
2021/07/17 14:38:59;;;;;;;2.83;1.30;;;;;;;;;;5070005;28;39989;-78
2021/07/17 14:41:26;;;;;;;4.90;1.67;;;;;;;;;;5073441;28;39108;-79
2021/07/17 14:43:53;;;;;;;4.13;1.35;;;;;;;;;;5080995;28;37010;-79
2021/07/17 14:52:45;;;;;;;4.90;1.55;;;;;;;;;;5343671;22;20033;-80
2021/07/17 14:55:12;;;;;;;6.65;2.22;;;;;;;;;;5122750;22;37479;-81
2021/07/17 14:57:50;;;;;;;6.10;3.03;;;;;;;;;;5107485;28;39751;-79
2021/07/17 15:00:18;;;;;;;6.57;3.47;;;;;;;;;;5078652;28;39543;-80
2021/07/17 15:03:06;;;;;;;13.63;10.27;;;;;;;;;;5089393;28;38979;-81